Time;durP1;ratioP1;P1;durP2;ratioP2;P2;SDS_P1;SDS_P2;PMS_P1;PMS_P2;Temp;Humidity;BMP_temperature;BMP_pressure;BME280_temperature;BME280_humidity;BME280_pressure;Samples;Min_cycle;Max_cycle;Signal;HPM_P1;HPM_P2
2022/01/27 00:01:39;;;;;;;28.15;12.60;;;;;;;-2.02;90.67;97792.88;2072466;28;20220;-59
2022/01/27 00:05:21;;;;;;;38.35;14.23;;;;;;;-2.11;90.33;97785.19;2072032;28;20703;-59
2022/01/27 00:06:22;;;;;;;25.92;12.00;;;;;;;-1.96;90.29;97788.59;2071915;28;20205;-60
2022/01/27 00:07:23;;;;;;;29.38;11.80;;;;;;;-1.77;89.74;97786.88;2072449;28;20190;-59
2022/01/27 00:08:30;;;;;;;31.63;13.45;;;;;;;-1.76;88.99;97786.00;2072307;28;20199;-59
2022/01/27 00:09:50;;;;;;;33.10;13.13;;;;;;;-1.82;89.63;97792.03;2071459;28;20322;-59
2022/01/27 00:10:55;;;;;;;29.42;11.98;;;;;;;-1.82;89.64;97787.75;2072370;28;20203;-59
2022/01/27 00:11:57;;;;;;;31.75;12.20;;;;;;;-1.91;89.51;97792.88;2072385;28;20207;-59
2022/01/27 00:12:59;;;;;;;30.42;12.10;;;;;;;-1.90;89.93;97789.47;2071983;28;20207;-60
2022/01/27 00:14:02;;;;;;;31.42;12.57;;;;;;;-1.89;89.81;97791.16;2071926;28;20211;-59
2022/01/27 00:15:10;;;;;;;30.80;12.25;;;;;;;-2.55;89.68;97691.03;2071805;28;20227;-60
2022/01/27 00:16:21;;;;;;;36.17;13.00;;;;;;;-2.06;90.34;97782.59;2071460;28;20671;-59
2022/01/27 00:17:29;;;;;;;37.45;15.55;;;;;;;-2.25;90.57;97754.38;2071463;28;20665;-59
2022/01/27 00:18:30;;;;;;;37.97;15.50;;;;;;;-2.04;90.32;97786.91;2072285;28;20196;-59
2022/01/27 00:19:32;;;;;;;32.92;14.27;;;;;;;-2.11;90.63;97781.75;2069609;28;20227;-59
2022/01/27 00:20:33;;;;;;;28.75;12.32;;;;;;;-2.06;90.22;97780.91;2072430;28;20196;-60
2022/01/27 00:21:35;;;;;;;32.00;13.25;;;;;;;-2.05;90.34;97786.88;2070876;28;20198;-59
2022/01/27 00:22:37;;;;;;;31.10;13.40;;;;;;;-2.10;90.85;97784.31;2072161;28;20199;-60
2022/01/27 00:23:40;;;;;;;28.25;13.02;;;;;;;-2.08;90.73;97789.44;2072186;28;20229;-60
2022/01/27 00:24:42;;;;;;;31.35;13.73;;;;;;;-2.11;90.25;97781.75;2071817;28;20227;-59
2022/01/27 00:25:43;;;;;;;25.15;11.90;;;;;;;-2.24;91.05;97781.72;2071992;28;20628;-59
2022/01/27 00:26:45;;;;;;;32.33;14.95;;;;;;;-2.22;91.19;97785.16;2071922;28;20243;-60
2022/01/27 00:27:47;;;;;;;35.80;13.43;;;;;;;-2.34;91.39;97777.44;2072413;28;20211;-59
2022/01/27 00:28:50;;;;;;;26.45;12.80;;;;;;;-2.31;90.72;97762.06;2070866;28;20203;-59
2022/01/27 00:29:51;;;;;;;27.42;12.68;;;;;;;-2.32;90.98;97768.03;2071547;28;20230;-59
2022/01/27 00:30:53;;;;;;;28.65;13.15;;;;;;;-2.42;90.65;97726.13;2071902;28;20206;-59
2022/01/27 00:31:55;;;;;;;25.98;11.95;;;;;;;-2.30;90.42;97744.94;2071625;28;20275;-59
2022/01/27 00:32:56;;;;;;;28.48;12.60;;;;;;;-2.09;90.74;97768.06;2072000;28;20200;-60
2022/01/27 00:34:03;;;;;;;34.75;13.27;;;;;;;-1.95;90.29;97762.91;2071047;28;20207;-59
2022/01/27 00:35:05;;;;;;;31.35;13.18;;;;;;;-1.96;89.96;97763.78;2070770;28;20717;-60
2022/01/27 00:36:07;;;;;;;33.15;12.95;;;;;;;-2.22;90.46;97764.63;2072033;28;20202;-60
2022/01/27 00:37:08;;;;;;;26.00;11.50;;;;;;;-2.23;90.80;97760.34;2071508;28;20206;-59
2022/01/27 00:38:10;;;;;;;32.10;13.63;;;;;;;-2.37;90.34;97762.06;2072291;28;20207;-59
2022/01/27 00:39:11;;;;;;;25.42;11.68;;;;;;;-2.40;90.96;97768.03;2072273;28;20210;-60
2022/01/27 00:40:13;;;;;;;33.63;13.20;;;;;;;-2.35;90.94;97767.19;2071674;28;20226;-59
2022/01/27 00:41:19;;;;;;;31.58;13.05;;;;;;;-2.35;91.07;97759.47;2072242;28;20213;-60
2022/01/27 00:42:23;;;;;;;30.23;13.07;;;;;;;-2.26;90.88;97760.34;2072183;28;20204;-59
2022/01/27 00:43:24;;;;;;;27.88;13.02;;;;;;;-2.25;90.24;97753.53;2072026;28;20198;-59
2022/01/27 00:44:26;;;;;;;34.15;14.30;;;;;;;-2.42;90.07;97756.06;2071962;28;20586;-60
2022/01/27 00:45:30;;;;;;;31.95;14.25;;;;;;;-2.34;90.22;97750.94;2072076;28;20221;-59
2022/01/27 00:46:32;;;;;;;29.75;13.55;;;;;;;-2.20;89.74;97762.91;2072411;28;20545;-60
2022/01/27 00:47:34;;;;;;;33.72;14.35;;;;;;;-2.29;89.93;97760.34;2072210;28;20214;-59
2022/01/27 00:48:36;;;;;;;33.90;14.30;;;;;;;-2.31;89.95;97748.34;2072392;28;20201;-60
2022/01/27 00:49:38;;;;;;;30.90;12.88;;;;;;;-2.28;89.61;97751.78;2070745;28;20203;-60
2022/01/27 00:50:40;;;;;;;45.78;20.05;;;;;;;-2.12;89.33;97762.91;2072264;28;20312;-59
2022/01/27 00:51:45;;;;;;;48.60;19.65;;;;;;;-2.42;88.88;97709.88;2072364;28;20205;-59
2022/01/27 00:52:53;;;;;;;39.88;15.88;;;;;;;-2.20;88.54;97764.63;2072325;28;20200;-60
2022/01/27 00:54:59;;;;;;;33.45;14.40;;;;;;;-2.21;89.41;97758.66;2071682;28;20233;-60
2022/01/27 00:56:13;;;;;;;30.02;13.55;;;;;;;-2.18;89.21;97762.91;2071956;28;20761;-61
2022/01/27 00:57:35;;;;;;;40.25;13.75;;;;;;;-2.12;88.91;97762.06;2071414;28;20193;-60
2022/01/27 00:58:50;;;;;;;29.25;12.63;;;;;;;-2.26;89.13;97762.91;2072248;28;20194;-60
2022/01/27 00:59:57;;;;;;;28.73;12.45;;;;;;;-2.31;89.46;97767.19;2071537;28;20220;-60
2022/01/27 01:01:02;;;;;;;26.80;11.65;;;;;;;-2.36;89.53;97753.50;2071694;28;20207;-60
2022/01/27 01:02:14;;;;;;;32.30;13.60;;;;;;;-2.26;89.65;97767.19;2071450;28;20540;-60
2022/01/27 01:03:27;;;;;;;26.42;13.25;;;;;;;-2.12;90.20;97774.91;2071885;28;20811;-60
2022/01/27 01:04:33;;;;;;;33.80;14.35;;;;;;;-2.07;89.86;97763.78;2070758;28;20210;-60
2022/01/27 01:06:56;;;;;;;33.20;13.50;;;;;;;-2.25;89.26;97733.84;2070721;28;20237;-60
2022/01/27 01:08:09;;;;;;;32.22;13.38;;;;;;;-1.98;89.56;97775.75;2072005;28;20203;-60
2022/01/27 01:15:43;;;;;;;28.67;12.80;;;;;;;-2.02;89.44;97763.75;2058814;28;20251;-60
2022/01/27 01:17:08;;;;;;;28.67;13.73;;;;;;;-2.23;88.90;97744.97;2058111;28;20207;-60
2022/01/27 01:30:06;;;;;;;27.48;13.68;;;;;;;-2.10;89.61;97762.91;2071140;28;20222;-60
2022/01/27 01:31:27;;;;;;;32.03;13.32;;;;;;;-2.10;89.89;97765.47;2071199;28;20194;-60
2022/01/27 01:32:43;;;;;;;25.67;11.63;;;;;;;-2.06;89.66;97755.22;2071917;28;20593;-60
2022/01/27 01:33:55;;;;;;;30.38;13.02;;;;;;;-2.36;90.04;97753.50;2072114;28;20205;-60
2022/01/27 01:34:59;;;;;;;23.02;11.18;;;;;;;-2.22;90.74;97764.63;2071567;28;20219;-60
2022/01/27 01:36:12;;;;;;;32.35;12.13;;;;;;;-2.08;90.17;97763.78;2070929;28;20230;-60
2022/01/27 01:37:17;;;;;;;31.35;13.15;;;;;;;-2.10;89.83;97766.34;2072137;28;20199;-60
2022/01/27 01:38:25;;;;;;;34.95;13.52;;;;;;;-2.31;90.55;97769.78;2073015;28;20199;-60
2022/01/27 01:39:30;;;;;;;28.30;13.75;;;;;;;-2.21;90.25;97771.47;2071182;28;20594;-60
2022/01/27 01:40:32;;;;;;;29.20;12.88;;;;;;;-2.31;90.78;97761.19;2087293;28;20202;-60
2022/01/27 01:41:33;;;;;;;33.63;14.75;;;;;;;-2.46;90.71;97736.38;2087540;28;20189;-61
2022/01/27 01:42:35;;;;;;;28.65;13.35;;;;;;;-2.19;90.37;97764.63;2071226;28;20192;-60
2022/01/27 01:43:37;;;;;;;27.38;14.65;;;;;;;-2.36;90.38;97738.09;2073492;28;20549;-60
2022/01/27 01:44:39;;;;;;;28.95;13.57;;;;;;;-2.48;90.13;97699.63;2073013;28;20206;-60
2022/01/27 01:45:41;;;;;;;30.33;12.80;;;;;;;-2.11;90.18;97768.94;2073322;28;20194;-60
2022/01/27 01:46:43;;;;;;;27.70;13.75;;;;;;;-2.29;90.06;97729.56;2073374;28;20688;-61
2022/01/27 01:47:47;;;;;;;28.67;14.25;;;;;;;-2.07;89.67;97765.50;2073475;28;20595;-60
2022/01/27 01:48:49;;;;;;;28.35;13.13;;;;;;;-2.25;90.01;97767.19;2073397;28;20202;-60
2022/01/27 01:49:50;;;;;;;28.10;13.23;;;;;;;-2.36;90.30;97761.19;2070612;28;20223;-60
2022/01/27 01:50:52;;;;;;;34.08;14.57;;;;;;;-2.37;90.68;97759.50;2073438;28;20207;-60
2022/01/27 01:51:56;;;;;;;27.75;13.63;;;;;;;-2.29;90.45;97750.09;2073357;28;20234;-60
2022/01/27 01:52:58;;;;;;;30.05;13.90;;;;;;;-2.60;89.83;97683.34;2073430;28;20207;-60
2022/01/27 01:53:59;;;;;;;29.35;13.07;;;;;;;-2.23;90.34;97762.91;2073356;28;20195;-60
2022/01/27 01:55:02;;;;;;;28.40;12.65;;;;;;;-2.19;90.15;97756.09;2073237;28;20227;-60
2022/01/27 01:56:05;;;;;;;28.00;13.38;;;;;;;-2.22;90.08;97749.22;2073327;28;20210;-60
2022/01/27 01:57:07;;;;;;;32.90;14.23;;;;;;;-2.00;89.18;97757.78;2073349;28;20202;-60
2022/01/27 01:58:09;;;;;;;33.83;14.85;;;;;;;-2.13;88.92;97750.09;2073296;28;20195;-60
2022/01/27 01:59:11;;;;;;;31.35;13.60;;;;;;;-2.47;89.43;97725.28;2073205;28;20217;-60
2022/01/27 02:00:14;;;;;;;37.67;14.60;;;;;;;-2.35;90.03;97742.41;2072714;28;20230;-60
2022/01/27 02:01:16;;;;;;;29.77;13.38;;;;;;;-2.24;89.35;97753.50;2071366;28;20199;-60
2022/01/27 02:02:22;;;;;;;26.35;13.32;;;;;;;-2.29;89.79;97749.25;2073352;28;20191;-60
2022/01/27 02:03:24;;;;;;;31.42;12.55;;;;;;;-2.23;89.55;97744.97;2073425;28;20210;-60
2022/01/27 02:04:25;;;;;;;30.70;14.13;;;;;;;-2.42;89.60;97751.78;2072627;28;20307;-60
2022/01/27 02:05:32;;;;;;;33.45;13.55;;;;;;;-2.36;89.80;97735.53;2073295;28;20247;-60
2022/01/27 02:06:43;;;;;;;29.70;14.20;;;;;;;-2.39;89.65;97743.25;2072444;28;20202;-60
2022/01/27 02:08:27;;;;;;;28.90;13.18;;;;;;;-2.44;89.82;97732.13;2072503;28;20214;-60
2022/01/27 02:18:30;;;;;;;26.63;13.18;;;;;;;-2.50;88.68;97715.00;2072904;28;20204;-60
2022/01/27 02:19:32;;;;;;;29.35;13.50;;;;;;;-2.43;89.14;97709.03;2072626;28;20653;-60
2022/01/27 02:20:36;;;;;;;31.27;13.43;;;;;;;-2.45;89.10;97709.88;2080238;28;20193;-60
2022/01/27 02:21:47;;;;;;;28.80;13.85;;;;;;;-2.48;89.33;97712.44;2079128;28;20236;-60
2022/01/27 02:22:48;;;;;;;29.75;13.77;;;;;;;-2.36;89.48;97715.00;2072571;28;20540;-60
2022/01/27 02:23:49;;;;;;;28.50;12.93;;;;;;;-2.42;89.04;97702.19;2073218;28;20218;-60
2022/01/27 02:24:52;;;;;;;30.65;14.25;;;;;;;-2.48;89.65;97709.88;2072666;28;20245;-60
2022/01/27 02:25:53;;;;;;;29.02;13.85;;;;;;;-2.40;89.90;97701.31;2072794;28;20547;-59
2022/01/27 02:26:56;;;;;;;32.33;14.65;;;;;;;-2.23;89.20;97705.59;2073396;28;20219;-59
2022/01/27 02:27:58;;;;;;;29.05;13.05;;;;;;;-2.26;88.47;97703.88;2073210;28;20207;-59
2022/01/27 02:28:59;;;;;;;29.27;13.60;;;;;;;-2.27;88.17;97707.31;2072588;28;20545;-59
2022/01/27 02:30:01;;;;;;;29.80;13.60;;;;;;;-2.32;88.40;97703.88;2069348;28;20236;-59
2022/01/27 02:31:02;;;;;;;28.92;13.55;;;;;;;-2.40;88.67;97700.47;2073235;28;20206;-60
2022/01/27 02:32:04;;;;;;;32.30;15.23;;;;;;;-2.46;88.59;97705.59;2073111;28;20670;-60
2022/01/27 02:33:06;;;;;;;34.40;15.40;;;;;;;-2.59;88.55;97703.03;2072753;28;20203;-59
2022/01/27 02:34:08;;;;;;;31.67;14.20;;;;;;;-2.63;88.57;97703.00;2072799;28;20212;-60
2022/01/27 02:35:09;;;;;;;31.58;13.50;;;;;;;-2.63;89.41;97701.31;2072327;28;20226;-59
2022/01/27 02:36:11;;;;;;;30.10;14.02;;;;;;;-2.56;89.11;97709.88;2071310;28;20570;-59
2022/01/27 02:37:13;;;;;;;29.02;12.38;;;;;;;-2.46;89.32;97708.16;2071894;28;20199;-59
2022/01/27 02:38:14;;;;;;;32.53;13.35;;;;;;;-2.60;89.68;97696.19;2072889;28;20198;-60
2022/01/27 02:39:17;;;;;;;34.08;14.98;;;;;;;-2.49;89.45;97703.03;2073014;28;20206;-59
2022/01/27 02:40:37;;;;;;;33.40;14.90;;;;;;;-2.43;89.78;97711.59;2072472;28;20696;-60
2022/01/27 02:41:49;;;;;;;29.90;13.48;;;;;;;-2.34;nan;97720.16;2072503;28;20550;-60
2022/01/27 02:42:50;;;;;;;32.28;13.77;;;;;;;-2.43;89.06;97706.47;2072522;28;20222;-60
2022/01/27 02:43:52;;;;;;;30.48;13.02;;;;;;;-2.58;89.79;97699.59;2073066;28;20201;-60
2022/01/27 02:44:53;;;;;;;29.17;13.48;;;;;;;-2.39;89.65;97720.16;2070400;28;20305;-59
2022/01/27 02:46:03;;;;;;;38.97;13.68;;;;;;;-2.30;89.19;97714.16;2073107;28;20205;-60
2022/01/27 02:47:05;;;;;;;29.77;13.60;;;;;;;-2.30;89.33;97714.16;2072481;28;20290;-59
2022/01/27 02:48:07;;;;;;;28.38;12.57;;;;;;;-2.37;89.58;97715.88;2072914;28;20567;-60
2022/01/27 02:49:08;;;;;;;34.88;14.18;;;;;;;-2.24;88.66;97703.88;2071493;28;20197;-59
2022/01/27 02:50:10;;;;;;;30.35;13.75;;;;;;;-2.35;89.01;97711.59;2072493;28;20218;-59
2022/01/27 02:51:12;;;;;;;30.10;13.23;;;;;;;-2.78;89.00;97642.31;2072975;28;20205;-60
2022/01/27 02:52:14;;;;;;;31.25;13.23;;;;;;;-2.12;88.28;97708.16;2072885;28;20202;-60
2022/01/27 02:53:19;;;;;;;31.50;13.65;;;;;;;-2.32;88.35;97706.44;2071829;28;20191;-59
2022/01/27 02:54:20;;;;;;;30.80;13.85;;;;;;;-2.32;88.38;97715.88;2072493;28;20228;-60
2022/01/27 02:55:22;;;;;;;29.65;13.95;;;;;;;-2.41;88.62;97701.31;2072903;28;20295;-60
2022/01/27 02:56:23;;;;;;;35.40;15.27;;;;;;;-2.29;88.68;97714.16;2072932;28;20215;-59
2022/01/27 02:57:25;;;;;;;36.10;15.68;;;;;;;-2.38;88.75;97712.44;2072823;28;20200;-60
2022/01/27 02:58:27;;;;;;;31.67;14.45;;;;;;;-2.35;89.39;97723.56;2072330;28;20203;-60
2022/01/27 02:59:28;;;;;;;36.58;14.25;;;;;;;-2.35;89.61;97727.00;2071780;28;20735;-60
2022/01/27 03:00:33;;;;;;;28.02;13.23;;;;;;;-2.35;89.53;97718.41;2072978;28;20199;-60
2022/01/27 03:01:35;;;;;;;27.27;12.20;;;;;;;-2.23;89.08;97719.28;2072135;28;20670;-60
2022/01/27 03:02:37;;;;;;;28.20;12.65;;;;;;;-2.26;88.94;97728.69;2072773;28;20198;-60
2022/01/27 03:03:38;;;;;;;30.30;13.52;;;;;;;-2.34;89.00;97741.53;2072778;28;20213;-60
2022/01/27 03:04:40;;;;;;;27.25;12.27;;;;;;;-2.43;89.35;97741.50;2071853;28;20842;-60
2022/01/27 03:05:42;;;;;;;25.80;12.25;;;;;;;-2.32;89.42;97738.97;2072803;28;20202;-59
2022/01/27 03:06:45;;;;;;;30.67;12.70;;;;;;;-2.20;89.02;97741.53;2071087;28;20561;-60
2022/01/27 03:07:48;;;;;;;26.40;12.60;;;;;;;-2.45;88.69;97722.69;2072738;28;20386;-60
2022/01/27 03:08:49;;;;;;;31.40;14.32;;;;;;;-2.46;89.30;97739.81;2071121;28;20202;-59
2022/01/27 03:09:54;;;;;;;29.80;13.20;;;;;;;-2.47;89.49;97727.84;2072275;28;20245;-59
2022/01/27 03:11:03;;;;;;;33.05;16.23;;;;;;;-2.38;89.48;97739.81;2071806;28;20207;-59
2022/01/27 03:12:07;;;;;;;39.10;15.20;;;;;;;-2.34;89.75;97748.38;2072926;28;20614;-59
2022/01/27 03:13:09;;;;;;;34.28;14.93;;;;;;;-2.54;89.59;97748.34;2071534;28;20206;-59
2022/01/27 03:14:12;;;;;;;31.98;14.65;;;;;;;-2.39;89.15;97753.50;2072799;28;20205;-59
2022/01/27 03:15:13;;;;;;;29.52;14.15;;;;;;;-2.32;88.94;97752.66;2072220;28;20230;-59
2022/01/27 03:16:15;;;;;;;31.13;13.48;;;;;;;-2.42;88.54;97751.78;2072760;28;20674;-60
2022/01/27 03:17:17;;;;;;;30.15;13.63;;;;;;;-2.50;89.02;97755.22;2071719;28;20237;-58
2022/01/27 03:18:18;;;;;;;30.75;13.93;;;;;;;-2.44;88.82;97755.22;2072435;28;20695;-59
2022/01/27 03:19:21;;;;;;;35.25;14.50;;;;;;;-2.41;88.79;97755.19;2077142;28;20199;-59
2022/01/27 03:20:23;;;;;;;32.78;13.23;;;;;;;-2.25;88.20;97756.09;2075482;28;20203;-59
2022/01/27 03:21:24;;;;;;;32.50;13.38;;;;;;;-2.31;88.01;97756.94;2072046;28;20223;-60
2022/01/27 03:22:26;;;;;;;28.38;13.65;;;;;;;-2.43;87.88;97734.69;2072470;28;20199;-60
2022/01/27 03:23:28;;;;;;;28.15;11.98;;;;;;;-2.57;88.41;97746.63;2072868;28;20199;-60
2022/01/27 03:24:30;;;;;;;29.92;14.15;;;;;;;-2.43;88.42;97742.38;2072287;28;20230;-59
2022/01/27 03:25:31;;;;;;;27.98;13.30;;;;;;;-2.34;88.21;97738.97;2072837;28;20658;-59
2022/01/27 03:26:33;;;;;;;32.95;13.63;;;;;;;-2.26;88.05;97737.25;2070254;28;20807;-59
2022/01/27 03:27:35;;;;;;;32.83;13.65;;;;;;;-2.42;87.90;97733.81;2072827;28;20202;-59
2022/01/27 03:28:36;;;;;;;30.80;13.40;;;;;;;-2.56;88.61;97725.25;2072586;28;20202;-59
2022/01/27 03:29:37;;;;;;;34.42;13.00;;;;;;;-2.44;88.53;97740.66;2072246;28;20206;-59
2022/01/27 03:30:39;;;;;;;30.65;13.20;;;;;;;-2.24;88.19;97732.97;2071728;28;20199;-59
2022/01/27 03:31:41;;;;;;;27.08;13.30;;;;;;;-2.17;88.13;97735.56;2072139;28;20203;-59
2022/01/27 03:32:43;;;;;;;26.10;11.88;;;;;;;-2.38;88.17;97702.16;2072652;28;20204;-59
2022/01/27 03:33:45;;;;;;;29.73;13.80;;;;;;;-2.28;87.88;97731.25;2072412;28;20196;-59
2022/01/27 03:34:47;;;;;;;24.25;13.35;;;;;;;-2.50;88.28;97704.75;2070948;28;20706;-59
2022/01/27 03:35:49;;;;;;;28.77;12.90;;;;;;;-2.28;88.46;97740.69;2072759;28;20654;-59
2022/01/27 03:36:51;;;;;;;29.92;12.57;;;;;;;-2.27;88.05;97730.41;2072628;28;20405;-60
2022/01/27 03:37:52;;;;;;;29.35;13.48;;;;;;;-2.38;88.36;97725.25;2072650;28;20195;-59
2022/01/27 03:38:54;;;;;;;30.58;12.15;;;;;;;-2.27;88.38;97721.88;2072051;28;20245;-59
2022/01/27 03:39:55;;;;;;;25.30;10.90;;;;;;;-2.51;88.75;97717.56;2071580;28;20412;-59
2022/01/27 03:40:58;;;;;;;26.75;12.80;;;;;;;-2.64;89.35;97702.16;2072384;28;20206;-59
2022/01/27 03:42:00;;;;;;;25.70;11.23;;;;;;;-2.62;89.19;97715.84;2072422;28;20551;-59
2022/01/27 03:43:06;;;;;;;30.42;13.27;;;;;;;-2.79;89.86;97692.72;2072181;28;20209;-59
2022/01/27 03:44:08;;;;;;;29.30;12.45;;;;;;;-2.81;89.78;97709.81;2072523;28;20324;-59
2022/01/27 03:45:10;;;;;;;31.52;12.15;;;;;;;-2.86;89.96;97702.97;2072123;28;20222;-60
2022/01/27 03:46:12;;;;;;;33.67;13.30;;;;;;;-2.74;89.69;97705.59;2071826;28;20199;-59
2022/01/27 03:47:13;;;;;;;31.20;11.80;;;;;;;-2.75;89.55;97703.84;2072511;28;20194;-59
2022/01/27 03:48:15;;;;;;;29.50;13.60;;;;;;;-2.90;89.56;97689.31;2072494;28;20846;-59
2022/01/27 03:49:17;;;;;;;28.35;12.48;;;;;;;-2.80;89.37;97708.13;2072461;28;20573;-59
2022/01/27 03:50:18;;;;;;;28.80;12.75;;;;;;;-2.74;89.62;97705.59;2071729;28;20272;-59
2022/01/27 03:51:20;;;;;;;26.00;11.80;;;;;;;-2.68;89.21;97707.31;2072419;28;20213;-59
2022/01/27 03:52:21;;;;;;;26.40;12.25;;;;;;;-2.74;89.34;97690.19;2072421;28;20200;-59
2022/01/27 03:53:23;;;;;;;26.27;11.88;;;;;;;-2.64;88.94;97693.63;2075833;28;20194;-59
2022/01/27 03:54:25;;;;;;;31.90;11.48;;;;;;;-2.56;89.04;97703.91;2075161;28;20655;-59
2022/01/27 03:55:27;;;;;;;26.58;12.25;;;;;;;-2.75;89.01;97693.59;2072484;28;20313;-59
2022/01/27 03:56:28;;;;;;;28.67;13.27;;;;;;;-2.84;89.78;97698.72;2072565;28;20538;-60
2022/01/27 03:57:30;;;;;;;28.15;12.25;;;;;;;-2.91;89.54;97687.59;2072321;28;21098;-60
2022/01/27 03:58:31;;;;;;;29.00;13.63;;;;;;;-2.97;89.69;97684.16;2072348;28;20198;-60
2022/01/27 03:59:33;;;;;;;30.52;13.15;;;;;;;-2.96;90.19;97685.88;2072170;28;20233;-59
2022/01/27 04:00:35;;;;;;;31.10;13.68;;;;;;;-2.99;90.39;97692.69;2071689;28;20202;-60
2022/01/27 04:01:38;;;;;;;29.45;13.52;;;;;;;-2.97;90.57;97682.47;2072415;28;20190;-59
2022/01/27 04:02:52;;;;;;;31.80;14.38;;;;;;;-3.04;90.75;97686.72;2072469;28;20202;-59
2022/01/27 04:03:57;;;;;;;31.42;14.23;;;;;;;-3.01;90.70;97689.28;2072021;28;20197;-60
2022/01/27 04:04:58;;;;;;;33.15;13.45;;;;;;;-3.19;90.59;97648.25;2070716;28;20685;-59
2022/01/27 04:06:10;;;;;;;31.17;13.55;;;;;;;-2.94;90.54;97679.03;2072492;28;20551;-60
2022/01/27 04:07:11;;;;;;;27.13;14.00;;;;;;;-2.89;90.63;97680.75;2072303;28;20310;-60
2022/01/27 04:08:13;;;;;;;30.88;13.63;;;;;;;-3.00;90.70;97679.88;2072486;28;20614;-60
2022/01/27 04:09:14;;;;;;;27.95;12.98;;;;;;;-3.12;90.67;97655.06;2072465;28;20194;-59
2022/01/27 04:10:16;;;;;;;31.80;14.10;;;;;;;-2.96;90.72;97685.88;2071649;28;20229;-60
2022/01/27 04:11:17;;;;;;;31.20;14.23;;;;;;;-2.96;91.38;97680.75;2072480;28;20584;-60
2022/01/27 04:12:19;;;;;;;28.80;13.45;;;;;;;-3.04;91.06;97676.47;2072491;28;20523;-60
2022/01/27 04:13:21;;;;;;;32.45;13.23;;;;;;;-3.05;90.91;97676.47;2072203;28;20217;-59
2022/01/27 04:14:22;;;;;;;31.73;13.70;;;;;;;-3.07;91.22;97673.03;2087689;28;20208;-59
2022/01/27 04:15:24;;;;;;;31.50;13.68;;;;;;;-3.07;91.15;97671.31;2087800;28;20200;-59
2022/01/27 04:16:26;;;;;;;30.92;14.07;;;;;;;-3.08;91.20;97668.75;2071180;28;20225;-59
2022/01/27 04:17:27;;;;;;;27.83;12.75;;;;;;;-3.09;90.98;97675.59;2071905;28;20213;-59
2022/01/27 04:18:29;;;;;;;36.53;13.88;;;;;;;-3.01;90.38;97680.75;2072075;28;20202;-60
2022/01/27 04:19:31;;;;;;;27.55;12.88;;;;;;;-3.10;90.17;97665.34;2070660;28;20198;-59
2022/01/27 04:20:33;;;;;;;31.40;14.00;;;;;;;-3.07;90.25;97671.31;2072072;28;20210;-59
2022/01/27 04:21:34;;;;;;;28.50;12.38;;;;;;;-3.02;90.67;97672.22;2072002;28;20267;-60
2022/01/27 04:22:36;;;;;;;30.58;13.30;;;;;;;-3.00;90.18;97667.94;2071912;28;20684;-59
2022/01/27 04:23:37;;;;;;;26.98;13.38;;;;;;;-3.15;90.51;97647.41;2072097;28;20193;-59
2022/01/27 04:24:39;;;;;;;33.63;15.05;;;;;;;-3.15;91.00;97669.63;2071565;28;20205;-60
2022/01/27 04:25:40;;;;;;;32.95;13.13;;;;;;;-3.23;91.52;97667.03;2071826;28;20209;-59
2022/01/27 04:26:46;;;;;;;35.72;13.95;;;;;;;-3.45;91.09;97645.59;2072125;28;20644;-59
2022/01/27 04:27:52;;;;;;;25.35;11.88;;;;;;;-3.35;91.76;97677.22;2072178;28;20198;-59
2022/01/27 04:28:54;;;;;;;37.72;13.80;;;;;;;-3.28;91.52;97668.72;2071542;28;20206;-59
2022/01/27 04:29:56;;;;;;;31.75;13.93;;;;;;;-3.40;91.32;97657.56;2071433;28;20214;-59
2022/01/27 04:31:00;;;;;;;30.83;12.73;;;;;;;-3.57;91.86;97643.84;2072119;28;20206;-59
2022/01/27 04:32:06;;;;;;;34.22;13.60;;;;;;;-3.67;91.88;97626.72;2071489;28;20555;-59
2022/01/27 04:33:08;;;;;;;31.00;12.60;;;;;;;-3.42;91.75;97677.19;2071828;28;20206;-59
2022/01/27 04:34:12;;;;;;;32.65;13.50;;;;;;;-3.41;91.57;97671.25;2071986;28;20206;-59
2022/01/27 04:35:18;;;;;;;31.90;13.95;;;;;;;-3.36;91.98;97672.97;2069912;28;20742;-60
2022/01/27 04:36:29;;;;;;;37.13;13.18;;;;;;;-3.34;91.51;97666.97;2072245;28;20194;-60
2022/01/27 04:37:35;;;;;;;29.95;13.70;;;;;;;-3.33;91.53;97666.16;2072189;28;20301;-60
2022/01/27 04:38:45;;;;;;;33.15;12.50;;;;;;;-3.26;91.44;97675.53;2072379;28;20751;-59
2022/01/27 04:40:03;;;;;;;29.27;12.48;;;;;;;-3.32;91.38;97667.84;2071992;28;20237;-60
2022/01/27 04:41:20;;;;;;;39.35;14.25;;;;;;;-3.30;91.50;97672.97;2072199;28;20201;-60
2022/01/27 04:43:28;;;;;;;31.17;14.40;;;;;;;-3.33;92.00;97675.50;2072105;28;20201;-60
2022/01/27 04:44:00;;;;;;;32.42;12.73;;;;;;;-3.40;91.80;97683.19;2064921;28;20202;-60
2022/01/27 04:45:05;;;;;;;27.25;13.00;;;;;;;-3.38;91.86;97676.34;2071422;28;20305;-60
2022/01/27 04:47:20;;;;;;;38.08;13.95;;;;;;;-3.32;91.94;97672.13;2071933;28;20206;-61
2022/01/27 04:48:23;;;;;;;27.48;12.85;;;;;;;-3.45;91.79;97659.28;2071734;28;20248;-60
2022/01/27 04:49:25;;;;;;;30.98;13.90;;;;;;;-3.69;91.21;97608.78;2071459;28;20202;-61
2022/01/27 04:50:27;;;;;;;31.55;13.15;;;;;;;-3.36;91.34;97678.09;2072101;28;20806;-60
2022/01/27 04:51:29;;;;;;;34.15;14.25;;;;;;;-3.35;91.80;97683.22;2072031;28;20194;-61
2022/01/27 04:52:35;;;;;;;34.10;14.82;;;;;;;-3.52;91.77;97649.00;2071914;28;20201;-60
2022/01/27 04:53:47;;;;;;;28.52;12.32;;;;;;;-3.30;91.31;97673.81;2072204;28;20375;-61
2022/01/27 04:55:07;;;;;;;31.40;12.60;;;;;;;-3.32;91.05;97684.94;2071315;28;20252;-60
2022/01/27 04:56:12;;;;;;;24.48;11.25;;;;;;;-3.32;90.63;97682.38;2071447;28;20201;-60
2022/01/27 04:57:14;;;;;;;36.22;14.85;;;;;;;-3.31;91.03;97681.50;2071495;28;20195;-60
2022/01/27 04:58:21;;;;;;;28.15;13.85;;;;;;;-3.30;90.91;97667.84;2071549;28;20194;-60
2022/01/27 04:59:27;;;;;;;31.95;13.88;;;;;;;-3.27;90.85;97668.72;2071320;28;20190;-60
2022/01/27 05:00:28;;;;;;;28.65;11.80;;;;;;;-3.16;90.47;97673.00;2071075;28;20621;-60
2022/01/27 05:01:35;;;;;;;27.85;13.60;;;;;;;-3.16;90.65;97673.84;2071491;28;20186;-60
2022/01/27 05:02:56;;;;;;;32.85;13.13;;;;;;;-3.24;90.73;97665.31;2071759;28;20197;-61
2022/01/27 05:04:08;;;;;;;28.67;12.70;;;;;;;-3.27;90.59;97652.50;2071754;28;20205;-61
2022/01/27 05:05:10;;;;;;;26.83;13.13;;;;;;;-3.43;90.23;97639.63;2071538;28;20244;-61
2022/01/27 05:06:22;;;;;;;26.20;11.57;;;;;;;-3.38;90.83;97670.38;2071740;28;20194;-61
2022/01/27 05:07:24;;;;;;;32.85;13.50;;;;;;;-3.47;90.57;97665.22;2072203;28;20641;-61
2022/01/27 05:08:25;;;;;;;24.02;11.25;;;;;;;-3.51;90.88;97677.16;2071629;28;20229;-60
2022/01/27 05:09:27;;;;;;;28.67;12.82;;;;;;;-3.55;90.61;97672.03;2071457;28;20198;-61
2022/01/27 05:10:33;;;;;;;32.35;13.57;;;;;;;-3.50;90.95;97673.75;2071892;28;20547;-61
2022/01/27 05:11:45;;;;;;;31.08;14.15;;;;;;;-3.57;91.25;97664.31;2071994;28;20193;-61
2022/01/27 05:12:50;;;;;;;34.67;13.40;;;;;;;-3.62;91.75;97671.16;2073454;28;20193;-61
2022/01/27 05:14:58;;;;;;;25.52;12.32;;;;;;;-3.59;91.63;97666.91;2073155;28;20327;-61
2022/01/27 05:16:00;;;;;;;24.73;11.32;;;;;;;-3.64;91.63;97666.03;2073776;28;20205;-61
2022/01/27 05:17:03;;;;;;;35.97;13.85;;;;;;;-3.65;91.44;97668.56;2072225;28;20202;-61
2022/01/27 05:18:04;;;;;;;37.50;13.05;;;;;;;-3.84;91.52;97635.22;2073630;28;20220;-61
2022/01/27 05:19:06;;;;;;;32.10;11.75;;;;;;;-3.54;91.46;97658.38;2073700;28;20198;-61
2022/01/27 05:20:08;;;;;;;32.72;12.50;;;;;;;-3.60;91.07;97648.97;2073160;28;20676;-61
2022/01/27 05:21:09;;;;;;;24.45;11.35;;;;;;;-3.58;91.25;97658.34;2070666;28;20201;-61
2022/01/27 05:22:11;;;;;;;28.88;11.85;;;;;;;-3.61;91.35;97657.47;2073764;28;20293;-61
2022/01/27 05:23:13;;;;;;;32.55;14.02;;;;;;;-3.67;91.32;97648.06;2073672;28;20202;-61
2022/01/27 05:24:16;;;;;;;29.00;12.10;;;;;;;-3.63;91.27;97660.03;2073521;28;20232;-61
2022/01/27 05:25:17;;;;;;;29.70;11.90;;;;;;;-3.62;91.16;97653.22;2072900;28;20222;-61
2022/01/27 05:26:19;;;;;;;40.92;14.73;;;;;;;-3.71;91.54;97651.47;2071890;28;20198;-61
2022/01/27 05:27:20;;;;;;;25.08;11.63;;;;;;;-3.73;91.29;97653.16;2073445;28;20221;-61
2022/01/27 05:28:22;;;;;;;33.20;12.80;;;;;;;-3.75;91.19;97648.91;2073162;28;20194;-60
2022/01/27 05:29:24;;;;;;;28.20;12.20;;;;;;;-3.73;91.29;97654.88;2072904;28;20221;-61
2022/01/27 05:30:25;;;;;;;26.33;13.10;;;;;;;-3.76;91.56;97640.38;2073471;28;20229;-61